createdAt,value
2022-11-12T00:02:46.597Z,6.44
2022-11-12T00:06:08.182Z,6.39
2022-11-12T00:09:25.543Z,6.33
2022-11-12T00:12:27.829Z,6.29
2022-11-12T00:15:29.807Z,6.24
2022-11-12T00:18:31.460Z,6.20
2022-11-12T00:21:33.089Z,6.13
2022-11-12T00:24:34.862Z,6.06
2022-11-12T00:27:36.404Z,5.99
2022-11-12T00:30:39.224Z,5.93
2022-11-12T00:33:42.165Z,5.88
2022-11-12T00:36:43.744Z,5.82
2022-11-12T00:39:45.463Z,5.74
2022-11-12T00:42:47.175Z,5.69
2022-11-12T00:45:48.945Z,5.64
2022-11-12T00:48:50.899Z,5.55
2022-11-12T00:51:52.672Z,5.37
2022-11-12T00:54:54.338Z,5.26
2022-11-12T00:57:57.714Z,5.31
2022-11-12T01:01:05.854Z,5.36
2022-11-12T01:04:08.321Z,5.35
2022-11-12T01:07:10.125Z,5.34
2022-11-12T01:10:12.139Z,5.32
2022-11-12T01:13:14.498Z,5.33
2022-11-12T01:16:20.059Z,5.32
2022-11-12T01:19:21.674Z,5.34
2022-11-12T01:22:23.758Z,5.36
2022-11-12T01:25:25.549Z,5.38
2022-11-12T01:28:29.379Z,5.35
2022-11-12T01:31:34.397Z,5.31
2022-11-12T01:34:36.117Z,5.24
2022-11-12T01:37:37.674Z,5.19
2022-11-12T01:40:39.423Z,5.13
2022-11-12T01:43:41.946Z,5.08
2022-11-12T01:46:58.138Z,5.07
2022-11-12T01:50:06.139Z,5.08
2022-11-12T01:53:10.163Z,5.06
2022-11-12T01:56:11.979Z,5.07
2022-11-12T01:59:26.816Z,5.06
2022-11-12T02:02:28.754Z,5.05
2022-11-12T02:05:31.686Z,5.06
2022-11-12T02:08:34.345Z,5.07
2022-11-12T02:11:36.107Z,5.09
2022-11-12T02:14:37.795Z,5.10
2022-11-12T02:17:39.391Z,5.11
2022-11-12T02:20:40.985Z,5.12
2022-11-12T02:23:43.101Z,5.13
2022-11-12T02:26:48.589Z,5.12
2022-11-12T02:29:50.382Z,5.12
2022-11-12T02:32:52.041Z,5.12
2022-11-12T02:35:53.861Z,5.11
2022-11-12T02:38:55.671Z,5.10
2022-11-12T02:41:57.345Z,5.08
2022-11-12T02:44:59.559Z,5.03
2022-11-12T02:48:01.776Z,5.00
2022-11-12T02:51:03.538Z,4.97
2022-11-12T02:54:05.316Z,4.94
2022-11-12T02:57:06.934Z,4.93
2022-11-12T03:00:10.929Z,4.92
2022-11-12T03:03:12.901Z,4.91
2022-11-12T03:06:15.064Z,4.90
2022-11-12T03:09:16.628Z,4.90
2022-11-12T03:12:18.107Z,4.89
2022-11-12T03:15:20.096Z,4.88
2022-11-12T03:18:22.053Z,4.87
2022-11-12T03:21:23.604Z,4.86
2022-11-12T03:24:25.219Z,4.85
2022-11-12T03:27:26.793Z,4.84
2022-11-12T03:30:31.180Z,4.82
2022-11-12T03:33:32.905Z,4.81
2022-11-12T03:36:34.607Z,4.80
2022-11-12T03:39:36.784Z,4.77
2022-11-12T03:42:38.389Z,4.74
2022-11-12T03:45:39.965Z,4.68
2022-11-12T03:48:41.770Z,4.62
2022-11-12T03:51:43.695Z,4.58
2022-11-12T03:54:45.417Z,4.51
2022-11-12T03:57:51.842Z,4.47
2022-11-12T04:00:53.560Z,4.43
2022-11-12T04:03:55.169Z,4.40
2022-11-12T04:07:15.774Z,4.39
2022-11-12T04:10:17.426Z,4.35
2022-11-12T04:13:28.285Z,4.31
2022-11-12T04:16:48.823Z,4.26
2022-11-12T04:20:09.280Z,4.22
2022-11-12T04:23:11.035Z,4.16
2022-11-12T04:26:24.889Z,4.11
2022-11-12T04:29:45.444Z,4.07
2022-11-12T04:32:54.759Z,4.01
2022-11-12T04:35:56.523Z,3.97
2022-11-12T04:38:58.258Z,3.94
2022-11-12T04:42:18.599Z,3.92
2022-11-12T04:45:20.227Z,3.89
2022-11-12T04:48:22.185Z,3.88
2022-11-12T04:51:42.738Z,3.88
2022-11-12T04:54:44.340Z,3.86
2022-11-12T04:57:46.099Z,3.85
2022-11-12T05:00:48.000Z,3.84
2022-11-12T05:03:49.664Z,3.84
2022-11-12T05:06:51.384Z,3.77
2022-11-12T05:09:53.046Z,3.64
2022-11-12T05:12:54.656Z,3.57
2022-11-12T05:15:56.308Z,3.59
2022-11-12T05:18:58.108Z,3.50
2022-11-12T05:22:05.699Z,3.41
2022-11-12T05:25:07.987Z,3.33
2022-11-12T05:28:09.641Z,3.26
2022-11-12T05:31:11.750Z,3.25
2022-11-12T05:34:15.568Z,3.18
2022-11-12T05:37:20.769Z,3.11
2022-11-12T05:40:22.382Z,3.12
2022-11-12T05:43:24.268Z,3.16
2022-11-12T05:46:25.870Z,3.22
2022-11-12T05:49:27.445Z,3.29
2022-11-12T05:52:29.582Z,3.32
2022-11-12T05:55:35.932Z,3.28
2022-11-12T05:58:39.285Z,3.30
2022-11-12T06:01:44.072Z,3.33
2022-11-12T06:04:45.742Z,3.44
2022-11-12T06:07:47.407Z,3.63
2022-11-12T06:10:50.452Z,3.84
2022-11-12T06:13:52.170Z,3.94
2022-11-12T06:16:53.741Z,3.99
2022-11-12T06:19:55.335Z,4.12
2022-11-12T06:22:57.519Z,4.32
2022-11-12T06:25:59.302Z,4.46
2022-11-12T06:29:00.854Z,4.68
2022-11-12T06:32:02.450Z,4.90
2022-11-12T06:35:04.867Z,4.90
2022-11-12T06:38:06.500Z,4.89
2022-11-12T06:41:08.912Z,4.91
2022-11-12T06:44:11.094Z,4.91
2022-11-12T06:47:12.782Z,5.04
2022-11-12T06:50:14.862Z,5.27
2022-11-12T06:53:16.482Z,5.44
2022-11-12T06:56:18.040Z,5.63
2022-11-12T06:59:19.969Z,5.82
2022-11-12T07:02:21.727Z,5.95
2022-11-12T07:05:23.420Z,6.01
2022-11-12T07:08:25.639Z,5.97
2022-11-12T07:11:27.843Z,6.03
2022-11-12T07:14:29.464Z,6.05
2022-11-12T07:17:31.049Z,6.16
2022-11-12T07:20:32.972Z,6.14
2022-11-12T07:23:36.212Z,6.29
2022-11-12T07:26:39.877Z,6.58
2022-11-12T07:29:48.806Z,6.85
2022-11-12T07:32:52.135Z,7.07
2022-11-12T07:36:06.029Z,7.45
2022-11-12T07:39:07.692Z,7.47
2022-11-12T07:42:09.470Z,7.37
2022-11-12T07:45:11.051Z,7.27
2022-11-12T07:48:12.673Z,7.23
2022-11-12T07:51:17.508Z,7.31
2022-11-12T07:54:19.262Z,7.37
2022-11-12T07:57:20.984Z,7.46
2022-11-12T08:00:23.715Z,7.53
2022-11-12T08:03:25.979Z,7.52
2022-11-12T08:06:29.008Z,7.56
2022-11-12T08:09:30.785Z,7.66
2022-11-12T08:12:32.330Z,7.78
2022-11-12T08:15:34.008Z,7.95
2022-11-12T08:18:35.689Z,8.14
2022-11-12T08:21:37.403Z,8.40
2022-11-12T08:24:39.274Z,8.61
2022-11-12T08:27:41.166Z,8.81
2022-11-12T08:30:42.846Z,9.14
2022-11-12T08:33:45.274Z,9.57
2022-11-12T08:36:46.949Z,10.08
2022-11-12T08:39:48.821Z,10.62
2022-11-12T08:42:57.938Z,11.27
2022-11-12T08:46:00.637Z,11.86
2022-11-12T08:49:02.315Z,12.09
2022-11-12T08:52:04.146Z,12.38
2022-11-12T08:55:06.623Z,12.58
2022-11-12T08:58:08.556Z,12.82
2022-11-12T09:01:10.372Z,13.01
2022-11-12T09:04:12.101Z,13.19
2022-11-12T09:07:43.416Z,13.29
2022-11-12T09:10:36.818Z,13.32
2022-11-12T09:13:38.735Z,13.35
2022-11-12T09:16:40.674Z,13.59
2022-11-12T09:19:43.157Z,13.73
2022-11-12T09:22:44.944Z,13.76
2022-11-12T09:25:46.699Z,14.02
2022-11-12T09:28:48.344Z,14.33
2022-11-12T09:31:50.362Z,14.53
2022-11-12T09:34:52.101Z,14.76
2022-11-12T09:37:53.801Z,14.87
2022-11-12T09:41:20.630Z,15.09
2022-11-12T09:44:24.542Z,15.40
2022-11-12T09:47:33.787Z,15.38
2022-11-12T09:50:41.042Z,15.34
2022-11-12T09:53:56.186Z,15.19
2022-11-12T09:56:57.867Z,15.17
2022-11-12T09:59:59.612Z,15.19
2022-11-12T10:03:15.044Z,14.98
2022-11-12T10:06:20.550Z,15.02
2022-11-12T10:09:29.259Z,15.36
2022-11-12T10:12:50.193Z,15.57
2022-11-12T10:16:33.280Z,15.75
2022-11-12T10:19:58.622Z,16.44
2022-11-12T10:23:32.684Z,16.98
2022-11-12T10:26:35.180Z,17.39
2022-11-12T10:29:46.891Z,17.60
2022-11-12T10:32:49.462Z,17.79
2022-11-12T10:35:52.801Z,18.01
2022-11-12T10:38:55.395Z,18.25
2022-11-12T10:42:23.941Z,18.34
2022-11-12T10:45:26.315Z,18.34
2022-11-12T10:48:29.390Z,18.26
2022-11-12T10:51:34.225Z,18.13
2022-11-12T10:54:38.997Z,18.38
2022-11-12T10:57:40.656Z,18.31
2022-11-12T11:01:03.005Z,18.31
2022-11-12T11:04:04.763Z,18.21
2022-11-12T11:07:15.322Z,18.00
2022-11-12T11:10:27.621Z,17.96
2022-11-12T11:13:29.236Z,17.84
2022-11-12T11:16:32.143Z,17.78
2022-11-12T11:19:38.695Z,17.65
2022-11-12T11:22:45.931Z,17.40
2022-11-12T11:25:51.410Z,16.97
2022-11-12T11:29:24.522Z,16.30
2022-11-12T11:32:37.435Z,15.85
2022-11-12T11:35:51.770Z,15.61
2022-11-12T11:38:59.524Z,15.00
2022-11-12T11:42:13.371Z,14.60
2022-11-12T11:45:40.534Z,14.33
2022-11-12T11:49:03.622Z,14.01
2022-11-12T11:52:50.712Z,13.90
2022-11-12T11:56:02.765Z,13.81
2022-11-12T11:59:24.612Z,13.70
2022-11-12T12:02:41.460Z,13.62
2022-11-12T12:05:46.405Z,13.56
2022-11-12T12:08:47.970Z,13.56
2022-11-12T12:11:54.780Z,13.54
2022-11-12T12:15:47.916Z,13.49
2022-11-12T12:19:05.166Z,13.55
2022-11-12T12:22:13.444Z,13.54
2022-11-12T12:25:28.056Z,13.52
2022-11-12T12:28:43.579Z,13.51
2022-11-12T12:31:50.970Z,13.52
2022-11-12T12:34:59.584Z,13.53
2022-11-12T12:38:15.679Z,13.56
2022-11-12T12:41:34.081Z,13.60
2022-11-12T12:45:01.244Z,13.64
2022-11-12T12:48:05.292Z,13.64
2022-11-12T12:51:06.977Z,13.65
2022-11-12T12:54:37.116Z,13.64
2022-11-12T12:57:39.656Z,13.66
2022-11-12T13:00:41.799Z,13.70
2022-11-12T13:03:43.852Z,13.72
2022-11-12T13:06:45.647Z,13.78
2022-11-12T13:09:47.483Z,13.74
2022-11-12T13:13:21.231Z,13.73
2022-11-12T13:17:01.856Z,13.72
2022-11-12T13:20:03.643Z,13.73
2022-11-12T13:23:09.839Z,13.81
2022-11-12T13:26:39.782Z,13.92
2022-11-12T13:29:42.909Z,13.81
2022-11-12T13:32:47.280Z,13.73
2022-11-12T13:35:49.180Z,13.67
2022-11-12T13:38:51.107Z,13.55
2022-11-12T13:42:18.137Z,13.45
2022-11-12T13:45:24.089Z,13.37
2022-11-12T13:48:36.959Z,13.29
2022-11-12T13:51:47.267Z,13.20
2022-11-12T13:55:01.664Z,13.10
2022-11-12T13:58:03.444Z,12.97
2022-11-12T14:01:06.422Z,12.88
2022-11-12T14:04:11.534Z,12.80
2022-11-12T14:07:40.019Z,12.71
2022-11-12T14:11:00.173Z,12.60
2022-11-12T14:14:16.360Z,12.51
2022-11-12T14:17:23.036Z,12.43
2022-11-12T14:20:30.778Z,12.35
2022-11-12T14:23:32.769Z,12.26
2022-11-12T14:26:40.054Z,12.15
2022-11-12T14:29:43.864Z,12.06
2022-11-12T14:32:47.386Z,11.97
2022-11-12T14:35:50.597Z,11.88
2022-11-12T14:38:55.292Z,11.80
2022-11-12T14:41:58.477Z,11.70
2022-11-12T14:45:00.406Z,11.56
2022-11-12T14:48:02.280Z,11.43
2022-11-12T14:51:07.452Z,11.28
2022-11-12T14:54:14.643Z,11.11
2022-11-12T14:57:26.835Z,10.84
2022-11-12T15:00:32.260Z,10.61
2022-11-12T15:03:34.044Z,10.43
2022-11-12T15:06:35.680Z,10.30
2022-11-12T15:09:38.960Z,10.18
2022-11-12T15:12:40.762Z,10.07
2022-11-12T15:15:59.680Z,9.97
2022-11-12T15:19:07.624Z,9.83
2022-11-12T15:22:19.579Z,9.65
2022-11-12T15:25:24.389Z,9.34
2022-11-12T15:28:26.653Z,9.03
2022-11-12T15:31:28.480Z,8.84
2022-11-12T15:34:41.117Z,8.76
2022-11-12T15:37:43.460Z,8.62
2022-11-12T15:40:46.609Z,8.49
2022-11-12T15:43:48.313Z,8.31
2022-11-12T15:46:50.092Z,8.15
2022-11-12T15:49:56.949Z,8.04
2022-11-12T15:52:59.312Z,7.94
2022-11-12T15:56:03.437Z,7.87
2022-11-12T15:59:05.163Z,7.80
2022-11-12T16:02:13.594Z,7.71
2022-11-12T16:05:16.582Z,7.62
2022-11-12T16:08:18.840Z,7.36
2022-11-12T16:11:35.964Z,7.02
2022-11-12T16:14:37.831Z,6.85
2022-11-12T16:17:39.765Z,6.78
2022-11-12T16:20:41.569Z,6.70
2022-11-12T16:23:43.393Z,6.61
2022-11-12T16:26:45.141Z,6.54
2022-11-12T16:29:46.955Z,6.46
2022-11-12T16:32:48.739Z,6.37
2022-11-12T16:35:51.110Z,6.27
2022-11-12T16:38:52.935Z,6.26
2022-11-12T16:41:54.598Z,6.23
2022-11-12T16:44:56.409Z,6.07
2022-11-12T16:47:58.388Z,5.92
2022-11-12T16:51:00.914Z,5.84
2022-11-12T16:54:02.649Z,5.76
2022-11-12T16:57:04.365Z,5.72
2022-11-12T17:00:07.646Z,5.59
2022-11-12T17:03:13.100Z,5.37
2022-11-12T17:06:14.804Z,5.26
2022-11-12T17:09:18.090Z,5.27
2022-11-12T17:12:19.871Z,5.22
2022-11-12T17:15:21.729Z,5.18
2022-11-12T17:18:23.452Z,5.10
2022-11-12T17:21:25.304Z,5.08
2022-11-12T17:24:27.292Z,5.07
2022-11-12T17:27:28.937Z,5.02
2022-11-12T17:30:30.580Z,5.05
2022-11-12T17:33:32.491Z,5.06
2022-11-12T17:36:35.324Z,5.02
2022-11-12T17:39:39.791Z,4.86
2022-11-12T17:42:41.366Z,4.71
2022-11-12T17:45:51.475Z,4.62
2022-11-12T17:48:53.374Z,4.45
2022-11-12T17:51:55.155Z,4.30
2022-11-12T17:54:56.802Z,4.23
2022-11-12T17:57:58.556Z,4.15
2022-11-12T18:01:23.406Z,4.09
2022-11-12T18:04:26.605Z,4.11
2022-11-12T18:07:31.850Z,4.12
2022-11-12T18:10:33.674Z,4.15
2022-11-12T18:13:35.275Z,4.11
2022-11-12T18:16:36.996Z,4.09
2022-11-12T18:19:38.486Z,4.05
2022-11-12T18:22:44.722Z,3.93
2022-11-12T18:25:46.862Z,3.90
2022-11-12T18:28:55.279Z,3.83
2022-11-12T18:31:56.901Z,3.80
2022-11-12T18:34:58.503Z,3.81
2022-11-12T18:38:00.219Z,3.77
2022-11-12T18:41:02.972Z,3.69
2022-11-12T18:44:04.827Z,3.60
2022-11-12T18:47:06.500Z,3.53
2022-11-12T18:50:09.064Z,3.35
2022-11-12T18:53:10.887Z,3.23
2022-11-12T18:56:17.601Z,3.24
2022-11-12T18:59:19.504Z,3.30
2022-11-12T19:02:21.420Z,3.54
2022-11-12T19:05:23.113Z,3.69
2022-11-12T19:08:26.584Z,3.60
2022-11-12T19:11:28.323Z,3.71
2022-11-12T19:14:30.339Z,3.80
2022-11-12T19:17:32.001Z,3.81
2022-11-12T19:20:33.587Z,3.88
2022-11-12T19:23:35.315Z,3.99
2022-11-12T19:26:36.914Z,4.05
2022-11-12T19:29:38.659Z,4.06
2022-11-12T19:32:40.345Z,4.14
2022-11-12T19:35:42.158Z,4.23
2022-11-12T19:38:44.159Z,4.23
2022-11-12T19:41:45.929Z,4.24
2022-11-12T19:44:48.213Z,4.32
2022-11-12T19:47:51.944Z,4.43
2022-11-12T19:50:54.194Z,4.45
2022-11-12T19:53:55.759Z,4.46
2022-11-12T19:56:57.392Z,4.54
2022-11-12T19:59:59.127Z,4.59
2022-11-12T20:03:00.730Z,4.57
2022-11-12T20:06:03.958Z,4.62
2022-11-12T20:09:05.930Z,4.66
2022-11-12T20:12:08.532Z,4.70
2022-11-12T20:15:10.530Z,4.79
2022-11-12T20:18:12.182Z,4.83
2022-11-12T20:21:13.808Z,4.83
2022-11-12T20:24:15.485Z,4.87
2022-11-12T20:27:17.920Z,4.94
2022-11-12T20:30:19.610Z,4.95
2022-11-12T20:33:21.237Z,4.99
2022-11-12T20:36:23.660Z,5.06
2022-11-12T20:39:25.376Z,5.09
2022-11-12T20:42:26.834Z,5.13
2022-11-12T20:45:28.585Z,5.21
2022-11-12T20:48:30.492Z,5.25
2022-11-12T20:51:33.742Z,5.26
2022-11-12T20:54:35.463Z,5.32
2022-11-12T20:57:37.004Z,5.34
2022-11-12T21:00:39.060Z,5.35
2022-11-12T21:03:42.146Z,5.39
2022-11-12T21:06:43.935Z,5.40
2022-11-12T21:09:45.630Z,5.37
2022-11-12T21:12:47.253Z,5.41
2022-11-12T21:15:49.143Z,5.42
2022-11-12T21:18:50.785Z,5.44
2022-11-12T21:21:52.398Z,5.50
2022-11-12T21:24:54.089Z,5.56
2022-11-12T21:27:55.581Z,5.60
2022-11-12T21:31:05.185Z,5.61
2022-11-12T21:34:07.200Z,5.66
2022-11-12T21:37:09.163Z,5.72
2022-11-12T21:40:11.048Z,5.78
2022-11-12T21:43:12.775Z,5.82
2022-11-12T21:46:21.101Z,5.91
2022-11-12T21:49:22.833Z,5.96
2022-11-12T21:52:24.524Z,6.01
2022-11-12T21:55:26.368Z,6.04
2022-11-12T21:58:29.525Z,6.08
2022-11-12T22:01:34.278Z,6.11
2022-11-12T22:04:35.998Z,6.13
2022-11-12T22:07:37.751Z,6.15
2022-11-12T22:10:39.407Z,6.17
2022-11-12T22:13:42.000Z,6.18
2022-11-12T22:16:43.891Z,6.19
2022-11-12T22:19:45.716Z,6.20
2022-11-12T22:22:47.339Z,6.21
2022-11-12T22:25:50.787Z,6.22
2022-11-12T22:28:54.011Z,6.23
2022-11-12T22:31:55.778Z,6.24
2022-11-12T22:34:57.652Z,6.25
2022-11-12T22:37:59.244Z,6.26
2022-11-12T22:41:11.140Z,6.26
2022-11-12T22:44:12.949Z,6.26
2022-11-12T22:47:14.657Z,6.26
2022-11-12T22:50:16.423Z,6.26
2022-11-12T22:53:18.090Z,6.25
2022-11-12T22:56:19.977Z,6.26
2022-11-12T22:59:21.709Z,6.26
2022-11-12T23:02:23.356Z,6.25
2022-11-12T23:05:25.049Z,6.25
2022-11-12T23:08:27.225Z,6.24
2022-11-12T23:11:29.304Z,6.24
2022-11-12T23:14:30.965Z,6.24
2022-11-12T23:17:32.632Z,6.24
2022-11-12T23:20:34.166Z,6.23
2022-11-12T23:23:36.259Z,6.22
2022-11-12T23:26:37.862Z,6.21
2022-11-12T23:29:39.564Z,6.22
2022-11-12T23:32:41.737Z,6.22
2022-11-12T23:35:43.448Z,6.22
2022-11-12T23:38:45.589Z,6.21
2022-11-12T23:41:47.328Z,6.21
2022-11-12T23:44:48.832Z,6.20
2022-11-12T23:47:50.908Z,6.20
2022-11-12T23:51:03.866Z,6.19
2022-11-12T23:54:05.800Z,6.18
2022-11-12T23:57:07.628Z,6.19
